Time,TemperatureF,DewpointF,PressureIn,WindDirection,WindDirectionDegrees,WindSpeedMPH,WindSpeedGustMPH,Humidity,HourlyPrecipIn,Conditions,Clouds,dailyrainin,SoftwareType,DateUTC
2013-01-10 00:09:00,75.2,69.7,30.14,ESE,112,11.4,-999.0,83,-99.99,,,0.00,Acu-Link.com,2013-01-10 05:09:00,
2013-01-10 00:24:00,75.0,69.5,30.14,ESE,112,5.3,-999.0,83,-99.99,,,0.00,Acu-Link.com,2013-01-10 05:24:00,
2013-01-10 00:39:00,75.2,70.0,30.13,ESE,112,10.4,-999.0,84,-99.99,,,0.00,Acu-Link.com,2013-01-10 05:39:00,
2013-01-10 00:54:00,75.0,69.8,30.13,ESE,112,11.9,-999.0,84,-99.99,,,0.00,Acu-Link.com,2013-01-10 05:54:00,
2013-01-10 01:09:00,75.0,69.5,30.13,SE,135,7.3,-999.0,83,-99.99,,,0.00,Acu-Link.com,2013-01-10 06:09:00,
2013-01-10 01:25:00,74.8,69.3,30.13,ESE,112,6.8,-999.0,83,-99.99,,,0.00,Acu-Link.com,2013-01-10 06:25:00,
2013-01-10 01:40:00,74.8,68.6,30.12,ESE,112,8.3,-999.0,81,-99.99,,,0.00,Acu-Link.com,2013-01-10 06:40:00,
2013-01-10 01:55:00,74.8,68.6,30.12,ESE,112,8.9,-999.0,81,-99.99,,,0.00,Acu-Link.com,2013-01-10 06:55:00,
2013-01-10 02:10:00,74.8,68.6,30.12,East,90,8.9,-999.0,81,-99.99,,,0.00,Acu-Link.com,2013-01-10 07:10:00,
2013-01-10 02:25:00,74.7,67.7,30.11,East,90,9.4,-999.0,79,-99.99,,,0.00,Acu-Link.com,2013-01-10 07:25:00,
2013-01-10 02:40:00,74.8,68.2,30.12,ESE,112,2.7,-999.0,80,-99.99,,,0.00,Acu-Link.com,2013-01-10 07:40:00,
2013-01-10 02:55:00,74.7,67.7,30.11,East,90,4.7,-999.0,79,-99.99,,,0.00,Acu-Link.com,2013-01-10 07:55:00,
2013-01-10 03:10:00,74.3,67.4,30.12,East,90,9.4,-999.0,79,-99.99,,,0.00,Acu-Link.com,2013-01-10 08:10:00,
2013-01-10 03:25:00,74.5,67.2,30.12,East,90,7.8,-999.0,78,-99.99,,,0.00,Acu-Link.com,2013-01-10 08:25:00,
2013-01-10 03:41:00,74.5,67.2,30.11,SE,135,5.8,-999.0,78,-99.99,,,0.00,Acu-Link.com,2013-01-10 08:41:00,
2013-01-10 03:56:00,74.3,67.4,30.11,ESE,112,5.3,-999.0,79,-99.99,,,0.00,Acu-Link.com,2013-01-10 08:56:00,
2013-01-10 04:11:00,74.3,67.7,30.11,ESE,112,5.3,-999.0,80,-99.99,,,0.00,Acu-Link.com,2013-01-10 09:11:00,
2013-01-10 04:26:00,74.3,67.7,30.11,ESE,112,5.8,-999.0,80,-99.99,,,0.00,Acu-Link.com,2013-01-10 09:26:00,
2013-01-10 04:43:00,74.3,67.0,30.10,ESE,112,4.2,-999.0,78,-99.99,,,0.00,Acu-Link.com,2013-01-10 09:43:00,
2013-01-10 04:58:00,73.9,66.6,30.10,ESE,112,5.3,-999.0,78,-99.99,,,0.00,Acu-Link.com,2013-01-10 09:58:00,
2013-01-10 05:13:00,73.8,66.9,30.10,ESE,112,6.3,-999.0,79,-99.99,,,0.00,Acu-Link.com,2013-01-10 10:13:00,
2013-01-10 05:28:00,73.8,67.2,30.10,ESE,112,5.3,-999.0,80,-99.99,,,0.00,Acu-Link.com,2013-01-10 10:28:00,
2013-01-10 05:43:00,73.9,66.2,30.10,ESE,112,6.3,-999.0,77,-99.99,,,0.00,Acu-Link.com,2013-01-10 10:43:00,
2013-01-10 05:59:00,74.1,65.7,30.10,SE,135,4.2,-999.0,75,-99.99,,,0.00,Acu-Link.com,2013-01-10 10:59:00,
2013-01-10 06:14:00,73.9,66.2,30.11,East,90,6.3,-999.0,77,-99.99,,,0.00,Acu-Link.com,2013-01-10 11:14:00,
2013-01-10 06:29:00,74.1,67.2,30.12,ESE,112,4.2,-999.0,79,-99.99,,,0.00,Acu-Link.com,2013-01-10 11:29:00,
2013-01-10 06:44:00,73.8,68.3,30.12,East,90,4.7,-999.0,83,-99.99,,,0.00,Acu-Link.com,2013-01-10 11:44:00,
2013-01-10 07:00:00,73.0,68.6,30.12,ESE,112,3.2,-999.0,86,-99.99,,,0.00,Acu-Link.com,2013-01-10 12:00:00,
2013-01-10 07:16:00,73.2,68.4,30.13,SE,135,3.7,-999.0,85,-99.99,,,0.00,Acu-Link.com,2013-01-10 12:16:00,
2013-01-10 07:31:00,73.6,67.4,30.13,SE,135,2.7,-999.0,81,-99.99,,,0.00,Acu-Link.com,2013-01-10 12:31:00,
2013-01-10 07:46:00,74.1,67.5,30.13,ESE,112,6.3,-999.0,80,-99.99,,,0.00,Acu-Link.com,2013-01-10 12:46:00,
2013-01-10 08:01:00,75.4,67.3,30.14,SE,135,6.3,-999.0,76,-99.99,,,0.00,Acu-Link.com,2013-01-10 13:01:00,
2013-01-10 08:16:00,76.1,67.6,30.13,ESE,112,4.2,-999.0,75,-99.99,,,0.00,Acu-Link.com,2013-01-10 13:16:00,
2013-01-10 08:31:00,76.6,68.5,30.15,SSE,157,5.3,-999.0,76,-99.99,,,0.00,Acu-Link.com,2013-01-10 13:31:00,
2013-01-10 08:46:00,77.4,68.0,30.15,ESE,112,10.4,-999.0,73,-99.99,,,0.00,Acu-Link.com,2013-01-10 13:46:00,
2013-01-10 09:01:00,76.1,68.0,30.15,East,90,8.9,-999.0,76,-99.99,,,0.00,Acu-Link.com,2013-01-10 14:01:00,
2013-01-10 09:17:00,77.0,68.1,30.16,ESE,112,8.9,-999.0,74,-99.99,,,0.00,Acu-Link.com,2013-01-10 14:17:00,
2013-01-10 09:32:00,78.4,68.2,30.15,ESE,112,9.4,-999.0,71,-99.99,,,0.00,Acu-Link.com,2013-01-10 14:32:00,
2013-01-10 09:47:00,78.4,66.9,30.15,ESE,112,8.3,-999.0,68,-99.99,,,0.00,Acu-Link.com,2013-01-10 14:47:00,
2013-01-10 10:02:00,78.8,67.3,30.14,SW,225,10.4,-999.0,68,-99.99,,,0.00,Acu-Link.com,2013-01-10 15:02:00,
2013-01-10 10:17:00,78.4,66.5,30.14,ESE,112,10.4,-999.0,67,-99.99,,,0.00,Acu-Link.com,2013-01-10 15:17:00,
2013-01-10 10:32:00,78.3,66.8,30.14,East,90,9.9,-999.0,68,-99.99,,,0.00,Acu-Link.com,2013-01-10 15:32:00,
2013-01-10 10:48:00,80.4,67.5,30.14,ESE,112,10.9,-999.0,65,-99.99,,,0.00,Acu-Link.com,2013-01-10 15:48:00,
2013-01-10 11:03:00,79.7,67.8,30.13,South,180,11.4,-999.0,67,-99.99,,,0.00,Acu-Link.com,2013-01-10 16:03:00,
2013-01-10 11:18:00,79.0,67.9,30.12,SE,135,8.9,-999.0,69,-99.99,,,0.00,Acu-Link.com,2013-01-10 16:18:00,
2013-01-10 11:33:00,79.9,68.8,30.11,SE,135,11.9,-999.0,69,-99.99,,,0.00,Acu-Link.com,2013-01-10 16:33:00,
2013-01-10 11:48:00,80.2,67.8,30.10,SE,135,9.4,-999.0,66,-99.99,,,0.00,Acu-Link.com,2013-01-10 16:48:00,
2013-01-10 12:03:00,79.2,66.4,30.09,SE,135,11.4,-999.0,65,-99.99,,,0.00,Acu-Link.com,2013-01-10 17:03:00,
2013-01-10 12:18:00,79.5,65.8,30.09,ENE,67,8.9,-999.0,63,-99.99,,,0.00,Acu-Link.com,2013-01-10 17:18:00,
2013-01-10 12:34:00,78.4,66.5,30.08,ESE,112,12.5,-999.0,67,-99.99,,,0.00,Acu-Link.com,2013-01-10 17:34:00,
2013-01-10 12:49:00,79.0,65.8,30.07,ESE,112,16.6,-999.0,64,-99.99,,,0.00,Acu-Link.com,2013-01-10 17:49:00,
2013-01-10 13:04:00,80.4,65.7,30.06,East,90,7.8,-999.0,61,-99.99,,,0.00,Acu-Link.com,2013-01-10 18:04:00,
2013-01-10 13:19:00,80.2,64.1,30.06,ESE,112,11.9,-999.0,58,-99.99,,,0.00,Acu-Link.com,2013-01-10 18:19:00,
2013-01-10 13:34:00,79.9,64.3,30.05,ESE,112,11.9,-999.0,59,-99.99,,,0.00,Acu-Link.com,2013-01-10 18:34:00,
2013-01-10 13:49:00,79.7,64.6,30.04,ESE,112,15.5,-999.0,60,-99.99,,,0.00,Acu-Link.com,2013-01-10 18:49:00,
2013-01-10 14:04:00,79.5,64.4,30.04,ESE,112,16.6,-999.0,60,-99.99,,,0.00,Acu-Link.com,2013-01-10 19:04:00,
2013-01-10 14:19:00,78.6,63.5,30.06,SE,135,14.0,-999.0,60,-99.99,,,0.00,Acu-Link.com,2013-01-10 19:19:00,
2013-01-10 14:34:00,79.9,64.3,30.06,ESE,112,9.9,-999.0,59,-99.99,,,0.00,Acu-Link.com,2013-01-10 19:34:00,
2013-01-10 14:50:00,78.4,63.8,30.06,ESE,112,13.0,-999.0,61,-99.99,,,0.00,Acu-Link.com,2013-01-10 19:50:00,
2013-01-10 15:05:00,79.0,64.8,30.06,East,90,13.5,-999.0,62,-99.99,,,0.00,Acu-Link.com,2013-01-10 20:05:00,
2013-01-10 15:20:00,78.6,65.8,30.07,SE,135,14.5,-999.0,65,-99.99,,,0.00,Acu-Link.com,2013-01-10 20:20:00,
2013-01-10 15:35:00,77.4,64.7,30.08,NE,45,6.3,-999.0,65,-99.99,,,0.00,Acu-Link.com,2013-01-10 20:35:00,
2013-01-10 15:50:00,77.5,66.1,30.09,ESE,112,5.3,-999.0,68,-99.99,,,0.00,Acu-Link.com,2013-01-10 20:50:00,
2013-01-10 16:05:00,77.4,65.6,30.09,ESE,112,6.8,-999.0,67,-99.99,,,0.00,Acu-Link.com,2013-01-10 21:05:00,
2013-01-10 16:20:00,77.5,65.2,30.09,ESE,112,7.8,-999.0,66,-99.99,,,0.00,Acu-Link.com,2013-01-10 21:20:00,
2013-01-10 16:35:00,77.4,64.7,30.11,ESE,112,5.8,-999.0,65,-99.99,,,0.00,Acu-Link.com,2013-01-10 21:35:00,
2013-01-10 16:50:00,77.2,66.2,30.10,ESE,112,7.3,-999.0,69,-99.99,,,0.00,Acu-Link.com,2013-01-10 21:50:00,
2013-01-10 17:06:00,77.2,66.2,30.10,East,90,8.3,-999.0,69,-99.99,,,0.00,Acu-Link.com,2013-01-10 22:06:00,
2013-01-10 17:21:00,76.5,66.4,30.10,East,90,7.3,-999.0,71,-99.99,,,0.00,Acu-Link.com,2013-01-10 22:21:00,
2013-01-10 17:36:00,75.9,66.6,30.11,ESE,112,4.7,-999.0,73,-99.99,,,0.00,Acu-Link.com,2013-01-10 22:36:00,
2013-01-10 17:51:00,75.6,66.7,30.11,ENE,67,4.2,-999.0,74,-99.99,,,0.00,Acu-Link.com,2013-01-10 22:51:00,
2013-01-10 18:06:00,75.2,66.7,30.10,East,90,3.2,-999.0,75,-99.99,,,0.00,Acu-Link.com,2013-01-10 23:06:00,
2013-01-10 18:21:00,74.8,67.1,30.11,ESE,112,6.3,-999.0,77,-99.99,,,0.00,Acu-Link.com,2013-01-10 23:21:00,
2013-01-10 18:37:00,74.7,67.0,30.11,ESE,112,3.2,-999.0,77,-99.99,,,0.00,Acu-Link.com,2013-01-10 23:37:00,
2013-01-10 18:52:00,74.5,66.8,30.12,ESE,112,3.2,-999.0,77,-99.99,,,0.00,Acu-Link.com,2013-01-10 23:52:00,
2013-01-10 19:07:00,74.3,67.0,30.11,ENE,67,6.8,-999.0,78,-99.99,,,0.00,Acu-Link.com,2013-01-11 00:07:00,
2013-01-10 19:22:00,74.1,66.8,30.11,ESE,112,4.2,-999.0,78,-99.99,,,0.00,Acu-Link.com,2013-01-11 00:22:00,
2013-01-10 19:38:00,73.8,66.9,30.11,East,90,5.8,-999.0,79,-99.99,,,0.00,Acu-Link.com,2013-01-11 00:38:00,
2013-01-10 19:56:00,73.8,66.9,30.11,ESE,112,4.7,-999.0,79,-99.99,,,0.00,Acu-Link.com,2013-01-11 00:56:00,
2013-01-10 20:12:00,73.9,66.6,30.11,ESE,112,4.7,-999.0,78,-99.99,,,0.00,Acu-Link.com,2013-01-11 01:12:00,
2013-01-10 20:27:00,74.1,66.8,30.11,East,90,4.2,-999.0,78,-99.99,,,0.00,Acu-Link.com,2013-01-11 01:27:00,
2013-01-10 20:42:00,74.1,65.7,30.12,East,90,12.5,-999.0,75,-99.99,,,0.00,Acu-Link.com,2013-01-11 01:42:00,
2013-01-10 20:58:00,74.1,65.7,30.11,ESE,112,6.3,-999.0,75,-99.99,,,0.00,Acu-Link.com,2013-01-11 01:58:00,
2013-01-10 21:28:00,73.8,65.4,30.11,ESE,112,4.2,-999.0,75,-99.99,,,0.00,Acu-Link.com,2013-01-11 02:28:00,
2013-01-10 21:58:00,74.1,66.0,30.11,SE,135,7.3,-999.0,76,-99.99,,,0.00,Acu-Link.com,2013-01-11 02:58:00,
2013-01-10 22:13:00,74.3,66.6,30.12,East,90,3.2,-999.0,77,-99.99,,,0.00,Acu-Link.com,2013-01-11 03:13:00,
2013-01-10 22:29:00,74.3,66.2,30.11,ESE,112,5.3,-999.0,76,-99.99,,,0.00,Acu-Link.com,2013-01-11 03:29:00,
2013-01-10 22:44:00,74.3,67.0,30.12,East,90,6.3,-999.0,78,-99.99,,,0.00,Acu-Link.com,2013-01-11 03:44:00,
2013-01-10 22:59:00,74.8,68.2,30.12,ESE,112,7.3,-999.0,80,-99.99,,,0.00,Acu-Link.com,2013-01-11 03:59:00,
2013-01-10 23:14:00,74.7,68.5,30.12,ESE,112,7.3,-999.0,81,-99.99,,,0.00,Acu-Link.com,2013-01-11 04:14:00,
2013-01-10 23:29:00,74.7,68.1,30.12,ESE,112,4.2,-999.0,80,-99.99,,,0.00,Acu-Link.com,2013-01-11 04:29:00,
2013-01-10 23:44:00,74.7,68.1,30.11,SSE,157,7.8,-999.0,80,-99.99,,,0.00,Acu-Link.com,2013-01-11 04:44:00,